Palmer, PR (00721)

1:09 PM AST on October 30, 2014 (GMT -0400)
myweatherplace.com | Change Station
CLOSE
Current Station
Personal Weather Station
Location: Loiza, PR
Elevation: 20 ft
Nearby Weather Stations

Elev 20 ft 18.43 °N, 65.86 °W | Updated 7 minutes ago

Overcast
Overcast
85.3 °F
Feels Like 97 °F
N
3.0
Wind Variable Wind from North
Gusts 7.0 mph

Today
High -- | Low -- °F
--% Chance of Precip.
Yesterday
High -- | Low -- °F
Precip. -- in
6:21 AM 5:51 PM
Waxing Crescent, 45% visible
Pressure 29.83 in
Visibility 10.0 miles
Clouds Few 2000 ft
Scattered Clouds 2600 ft
Overcast 3600 ft
Heat Index 97 °F
Dew Point 78 °F
Humidity 79%
Rainfall -999.00 in
Snow Depth Not available.
UV 6.5 out of 12
Pollen Not available.
Air Quality Not available.
Flu Activity Not available.
SPECI TJNR 301706Z AUTO 15006KT 10SM FEW020 SCT026 OVC036 29/25 A2983 RMK AO2 T02890250 $

More Conditions Fewer Conditions

Pressure 29.83 in
Visibility 10.0 miles
Clouds Few 2000 ft
Scattered Clouds 2600 ft
Overcast 3600 ft
Heat Index 97 °F
Dew Point 78 °F
Humidity 79%
Rainfall -999.00 in
Snow Depth Not available.
UV 6.5 out of 12
Pollen Not available.
Air Quality Not available.
Flu Activity Not available.
SPECI TJNR 301706Z AUTO 15006KT 10SM FEW020 SCT026 OVC036 29/25 A2983 RMK AO2 T02890250 $

More Conditions Fewer Conditions

10-Day Weather Forecast

Almanac

Astronomy

Oct. 30, 2014 Rise Set
Actual Time
Civil Twilight
Nautical Twilight
Astronomical Twilight
Moon
Length of Visible Light
Length of Day
Tomorrow will be .
, % of the Moon is Illuminated

Today's Extremes

State Highs State Lows

Community

WunderPhotos

Upload Photos

1,766,403 photos uploaded!

WunderBlogs® & News

Nearby

Air Quality

  Air Quality AQ Index Pollutant
Not available.

Snow Depth

Station Depth Elevation

Earthquake Activity

City Distance Mag. Time & Date
Minimum magnitude displayed is 2.5.

Coastal Water Temperatures

Place Temperature

Nearby Weather Stations